createdAt,value
2019-05-09T00:01:43.744Z,99688.67
2019-05-09T00:04:14.015Z,99683.77
2019-05-09T00:06:44.635Z,99680.61
2019-05-09T00:09:15.392Z,99672.27
2019-05-09T00:11:45.952Z,99667.75
2019-05-09T00:14:16.523Z,99663.11
2019-05-09T00:16:47.110Z,99660.59
2019-05-09T00:19:17.708Z,99657.66
2019-05-09T00:21:54.062Z,99658.27
2019-05-09T00:24:24.758Z,99652.05
2019-05-09T00:26:55.344Z,99656.27
2019-05-09T00:29:30.554Z,99651.30
2019-05-09T00:32:18.083Z,99647.36
2019-05-09T00:34:56.069Z,99648.73
2019-05-09T00:37:44.815Z,99647.02
2019-05-09T00:40:16.369Z,99645.11
2019-05-09T00:42:46.930Z,99648.18
2019-05-09T00:45:19.141Z,99644.39
2019-05-09T00:47:49.721Z,99646.09
2019-05-09T00:50:20.304Z,99649.05
2019-05-09T00:52:50.980Z,99646.31
2019-05-09T00:55:23.747Z,99639.07
2019-05-09T00:57:53.963Z,99640.88
2019-05-09T01:00:24.813Z,99638.56
2019-05-09T01:02:55.455Z,99632.50
2019-05-09T01:05:26.316Z,99634.57
2019-05-09T01:07:58.333Z,99632.59
2019-05-09T01:10:29.146Z,99634.70
2019-05-09T01:12:59.621Z,99636.17
2019-05-09T01:15:30.203Z,99629.00
2019-05-09T01:18:00.786Z,99630.42
2019-05-09T01:20:33.319Z,99628.76
2019-05-09T01:23:03.662Z,99624.28
2019-05-09T01:25:34.214Z,99629.62
2019-05-09T01:28:04.842Z,99621.44
2019-05-09T01:30:35.474Z,99619.87
2019-05-09T01:33:24.200Z,99620.37
2019-05-09T01:35:54.887Z,99614.92
2019-05-09T01:38:25.494Z,99612.19
2019-05-09T01:40:56.086Z,99610.02
2019-05-09T01:43:26.666Z,99607.41
2019-05-09T01:45:57.259Z,99602.97
2019-05-09T01:48:29.533Z,99597.42
2019-05-09T01:51:00.088Z,99603.06
2019-05-09T01:53:33.438Z,99592.34
2019-05-09T01:56:05.276Z,99592.02
2019-05-09T01:58:35.873Z,99597.79
2019-05-09T02:01:08.321Z,99592.52
2019-05-09T02:03:38.902Z,99585.73
2019-05-09T02:06:09.481Z,99584.39
2019-05-09T02:08:40.037Z,99577.30
2019-05-09T02:11:13.090Z,99578.73
2019-05-09T02:13:44.215Z,99571.58
2019-05-09T02:16:19.521Z,99570.22
2019-05-09T02:18:54.694Z,99568.52
2019-05-09T02:21:25.253Z,99563.92
2019-05-09T02:23:55.839Z,99565.40
2019-05-09T02:26:26.389Z,99565.49
2019-05-09T02:28:56.967Z,99570.28
2019-05-09T02:31:27.623Z,99563.83
2019-05-09T02:33:58.176Z,99565.77
2019-05-09T02:36:29.595Z,99561.92
2019-05-09T02:39:00.210Z,99558.95
2019-05-09T02:41:30.846Z,99554.67
2019-05-09T02:44:01.454Z,99550.91
2019-05-09T02:46:39.657Z,99550.97
2019-05-09T02:49:11.745Z,99550.82
2019-05-09T02:51:42.558Z,99552.64
2019-05-09T02:54:13.113Z,99553.60
2019-05-09T02:56:44.436Z,99551.95
2019-05-09T02:59:32.782Z,99542.85
2019-05-09T03:02:19.560Z,99551.08
2019-05-09T03:04:49.276Z,99547.66
2019-05-09T03:07:21.469Z,99541.38
2019-05-09T03:09:52.038Z,99539.67
2019-05-09T03:12:32.051Z,99542.32
2019-05-09T03:14:54.852Z,99537.78
2019-05-09T03:17:27.856Z,99538.45
2019-05-09T03:19:58.639Z,99536.64
2019-05-09T03:22:29.594Z,99534.86
2019-05-09T03:25:00.166Z,99531.61
2019-05-09T03:27:32.383Z,99535.27
2019-05-09T03:30:04.596Z,99527.00
2019-05-09T03:32:38.537Z,99533.17
2019-05-09T03:35:08.407Z,99533.17
2019-05-09T03:37:39.056Z,99535.99
2019-05-09T03:40:09.701Z,99531.42
2019-05-09T03:42:43.599Z,99533.29
2019-05-09T03:45:14.270Z,99531.01
2019-05-09T03:47:49.164Z,99533.21
2019-05-09T03:50:19.740Z,99530.17
2019-05-09T03:52:50.294Z,99536.57
2019-05-09T03:55:22.512Z,99528.08
2019-05-09T03:58:03.568Z,99536.05
2019-05-09T04:00:34.129Z,99541.30
2019-05-09T04:03:04.774Z,99542.75
2019-05-09T04:05:37.519Z,99543.89
2019-05-09T04:08:18.221Z,99543.18
2019-05-09T04:10:51.575Z,99539.91
2019-05-09T04:13:24.333Z,99533.55
2019-05-09T04:15:55.219Z,99535.33
2019-05-09T04:18:27.735Z,99526.63
2019-05-09T04:20:58.372Z,99533.55
2019-05-09T04:23:28.951Z,99529.98
2019-05-09T04:26:01.193Z,99532.89
2019-05-09T04:28:31.826Z,99532.83
2019-05-09T04:31:02.392Z,99533.14
2019-05-09T04:33:32.967Z,99532.39
2019-05-09T04:36:03.574Z,99531.88
2019-05-09T04:38:34.249Z,99534.70
2019-05-09T04:41:04.893Z,99534.91
2019-05-09T04:43:39.455Z,99536.05
2019-05-09T04:46:12.861Z,99528.28
2019-05-09T04:48:42.262Z,99532.38
2019-05-09T04:51:12.844Z,99533.23
2019-05-09T04:53:43.408Z,99542.86
2019-05-09T04:56:24.902Z,99534.80
2019-05-09T04:58:55.487Z,99539.22
2019-05-09T05:01:39.900Z,99536.89
2019-05-09T05:04:10.903Z,99531.14
2019-05-09T05:06:42.417Z,99532.39
2019-05-09T05:09:13.101Z,99529.29
2019-05-09T05:11:46.520Z,99533.89
2019-05-09T05:14:22.667Z,99532.33
2019-05-09T05:16:55.728Z,99532.23
2019-05-09T05:19:30.929Z,99528.77
2019-05-09T05:22:01.250Z,99533.67
2019-05-09T05:24:39.288Z,99537.46
2019-05-09T05:27:10.034Z,99536.95
2019-05-09T05:29:40.611Z,99539.13
2019-05-09T05:32:14.106Z,99538.97
2019-05-09T05:34:48.034Z,99535.91
2019-05-09T05:37:19.598Z,99540.30
2019-05-09T05:39:50.206Z,99540.31
2019-05-09T05:42:22.259Z,99537.27
2019-05-09T05:44:53.776Z,99531.91
2019-05-09T05:47:27.254Z,99532.44
2019-05-09T05:49:58.262Z,99534.95
2019-05-09T05:52:28.840Z,99533.28
2019-05-09T05:55:00.215Z,99530.03
2019-05-09T05:57:30.929Z,99522.67
2019-05-09T06:00:01.480Z,99526.56
2019-05-09T06:02:33.166Z,99532.43
2019-05-09T06:05:04.340Z,99531.70
2019-05-09T06:07:34.918Z,99529.70
2019-05-09T06:10:08.264Z,99532.98
2019-05-09T06:12:38.629Z,99534.84
2019-05-09T06:15:09.851Z,99535.89
2019-05-09T06:17:40.430Z,99534.03
2019-05-09T06:20:11.352Z,99538.13
2019-05-09T06:22:41.898Z,99533.20
2019-05-09T06:25:12.542Z,99537.16
2019-05-09T06:27:43.109Z,99532.67
2019-05-09T06:30:17.577Z,99531.70
2019-05-09T06:32:48.166Z,99535.16
2019-05-09T06:35:21.898Z,99536.09
2019-05-09T06:37:52.457Z,99539.98
2019-05-09T06:40:24.668Z,99534.72
2019-05-09T06:42:55.295Z,99538.91
2019-05-09T06:45:30.714Z,99542.28
2019-05-09T06:48:01.352Z,99547.42
2019-05-09T06:50:31.954Z,99540.91
2019-05-09T06:53:02.511Z,99545.44
2019-05-09T06:55:33.098Z,99546.38
2019-05-09T06:58:05.385Z,99541.36
2019-05-09T07:00:39.116Z,99538.31
2019-05-09T07:03:11.637Z,99543.87
2019-05-09T07:05:53.173Z,99541.34
2019-05-09T07:08:31.197Z,99542.07
2019-05-09T07:11:00.534Z,99547.09
2019-05-09T07:13:31.200Z,99546.17
2019-05-09T07:16:02.235Z,99546.06
2019-05-09T07:18:32.813Z,99543.25
2019-05-09T07:21:03.698Z,99549.01
2019-05-09T07:23:34.284Z,99545.22
2019-05-09T07:26:12.566Z,99551.53
2019-05-09T07:28:43.157Z,99552.89
2019-05-09T07:31:28.437Z,99547.77
2019-05-09T07:34:03.746Z,99553.30
2019-05-09T07:36:34.698Z,99555.10
2019-05-09T07:39:08.712Z,99553.84
2019-05-09T07:41:39.651Z,99557.92
2019-05-09T07:44:10.219Z,99563.57
2019-05-09T07:46:51.237Z,99556.56
2019-05-09T07:49:21.843Z,99559.61
2019-05-09T07:51:52.522Z,99558.66
2019-05-09T07:54:25.701Z,99558.87
2019-05-09T07:56:57.855Z,99560.03
2019-05-09T07:59:27.744Z,99562.33
2019-05-09T08:01:58.441Z,99566.11
2019-05-09T08:04:29.014Z,99568.64
2019-05-09T08:06:59.877Z,99569.78
2019-05-09T08:09:33.009Z,99574.73
2019-05-09T08:12:03.591Z,99568.45
2019-05-09T08:14:39.259Z,99575.64
2019-05-09T08:17:10.123Z,99576.75
2019-05-09T08:19:40.702Z,99574.47
2019-05-09T08:22:12.380Z,99576.05
2019-05-09T08:24:44.087Z,99576.11
2019-05-09T08:27:14.653Z,99579.28
2019-05-09T08:29:47.689Z,99581.32
2019-05-09T08:32:18.160Z,99582.84
2019-05-09T08:34:48.802Z,99580.20
2019-05-09T08:37:19.380Z,99577.88
2019-05-09T08:39:49.953Z,99582.74
2019-05-09T08:42:20.523Z,99584.42
2019-05-09T08:44:51.090Z,99589.27
2019-05-09T08:47:21.669Z,99586.02
2019-05-09T08:50:01.583Z,99594.19
2019-05-09T08:52:32.129Z,99592.66
2019-05-09T08:55:02.741Z,99591.93
2019-05-09T08:57:33.424Z,99593.12
2019-05-09T09:00:08.701Z,99589.89
2019-05-09T09:02:39.253Z,99583.32
2019-05-09T09:05:10.073Z,99583.32
2019-05-09T09:07:40.649Z,99587.86
2019-05-09T09:10:11.645Z,99590.94
2019-05-09T09:12:42.268Z,99590.61
2019-05-09T09:15:12.934Z,99586.96
2019-05-09T09:17:43.518Z,99587.45
2019-05-09T09:20:14.218Z,99586.05
2019-05-09T09:22:44.807Z,99579.78
2019-05-09T09:25:15.406Z,99584.34
2019-05-09T09:27:50.696Z,99587.28
2019-05-09T09:30:24.713Z,99587.26
2019-05-09T09:32:51.147Z,99582.90
2019-05-09T09:35:21.814Z,99581.26
2019-05-09T09:37:52.476Z,99582.23
2019-05-09T09:40:23.959Z,99582.10
2019-05-09T09:42:54.564Z,99585.14
2019-05-09T09:45:27.739Z,99579.94
2019-05-09T09:47:59.196Z,99585.46
2019-05-09T09:50:30.182Z,99589.66
2019-05-09T09:53:01.843Z,99580.89
2019-05-09T09:55:32.608Z,99588.00
2019-05-09T09:58:03.723Z,99582.81
2019-05-09T10:01:08.810Z,99588.27
2019-05-09T10:03:38.323Z,99579.48
2019-05-09T10:06:09.130Z,99590.31
2019-05-09T10:08:40.472Z,99582.22
2019-05-09T10:11:11.418Z,99584.06
2019-05-09T10:13:42.003Z,99583.84
2019-05-09T10:16:28.590Z,99582.48
2019-05-09T10:18:48.145Z,99582.87
2019-05-09T10:21:20.366Z,99582.39
2019-05-09T10:23:51.176Z,99585.47
2019-05-09T10:26:21.782Z,99587.98
2019-05-09T10:28:52.341Z,99586.27
2019-05-09T10:31:23.093Z,99585.31
2019-05-09T10:33:55.168Z,99588.64
2019-05-09T10:36:27.848Z,99592.74
2019-05-09T10:38:58.841Z,99590.66
2019-05-09T10:41:29.989Z,99587.64
2019-05-09T10:44:02.207Z,99583.23
2019-05-09T10:46:52.135Z,99583.72
2019-05-09T10:49:08.517Z,99588.45
2019-05-09T10:51:39.193Z,99590.45
2019-05-09T10:54:09.784Z,99588.38
2019-05-09T10:56:40.457Z,99578.72
2019-05-09T10:59:11.200Z,99586.36
2019-05-09T11:01:41.795Z,99578.84
2019-05-09T11:04:12.873Z,99579.23
2019-05-09T11:06:43.431Z,99580.92
2019-05-09T11:09:14.008Z,99583.23
2019-05-09T11:11:44.740Z,99577.02
2019-05-09T11:14:31.606Z,99574.00
2019-05-09T11:16:54.295Z,99570.00
2019-05-09T11:19:20.027Z,99577.31
2019-05-09T11:21:50.597Z,99575.84
2019-05-09T11:24:21.465Z,99570.62
2019-05-09T11:26:53.641Z,99570.62
2019-05-09T11:29:24.207Z,99573.45
2019-05-09T11:31:54.772Z,99576.59
2019-05-09T11:34:25.402Z,99572.73
2019-05-09T11:36:57.908Z,99571.25
2019-05-09T11:39:36.548Z,99567.66
2019-05-09T11:42:00.553Z,99566.63
2019-05-09T11:44:31.118Z,99574.77
2019-05-09T11:47:01.689Z,99575.26
2019-05-09T11:49:32.515Z,99576.28
2019-05-09T11:52:03.088Z,99578.55
2019-05-09T11:54:33.755Z,99583.20
2019-05-09T11:57:04.327Z,99580.00
2019-05-09T11:59:34.890Z,99583.22
2019-05-09T12:02:08.917Z,99579.49
2019-05-09T12:04:39.090Z,99579.61
2019-05-09T12:07:09.666Z,99584.89
2019-05-09T12:09:40.226Z,99576.82
2019-05-09T12:12:10.795Z,99580.94
2019-05-09T12:14:41.365Z,99586.50
2019-05-09T12:17:11.920Z,99583.38
2019-05-09T12:19:42.496Z,99588.73
2019-05-09T12:22:13.087Z,99581.70
2019-05-09T12:24:44.885Z,99587.47
2019-05-09T12:27:18.571Z,99584.52
2019-05-09T12:29:48.400Z,99581.55
2019-05-09T12:32:22.094Z,99582.13
2019-05-09T12:34:52.723Z,99587.73
2019-05-09T12:37:23.319Z,99584.53
2019-05-09T12:39:55.805Z,99582.09
2019-05-09T12:42:28.835Z,99576.19
2019-05-09T12:44:59.107Z,99587.94
2019-05-09T12:47:29.852Z,99590.75
2019-05-09T12:50:02.923Z,99583.81
2019-05-09T12:52:33.045Z,99583.52
2019-05-09T12:55:04.330Z,99583.86
2019-05-09T12:57:34.896Z,99584.70
2019-05-09T13:00:11.985Z,99580.23
2019-05-09T13:02:42.581Z,99580.39
2019-05-09T13:05:13.396Z,99570.19
2019-05-09T13:07:44.017Z,99574.74
2019-05-09T13:10:14.811Z,99570.22
2019-05-09T13:12:47.591Z,99574.97
2019-05-09T13:15:20.854Z,99571.97
2019-05-09T13:17:52.342Z,99579.43
2019-05-09T13:20:22.918Z,99570.73
2019-05-09T13:22:53.480Z,99581.16
2019-05-09T13:25:24.115Z,99575.30
2019-05-09T13:27:55.073Z,99573.94
2019-05-09T13:30:28.308Z,99575.07
2019-05-09T13:32:57.991Z,99577.02
2019-05-09T13:35:28.625Z,99569.56
2019-05-09T13:37:59.793Z,99577.46
2019-05-09T13:40:30.426Z,99571.15
2019-05-09T13:43:01.118Z,99570.97
2019-05-09T13:45:31.699Z,99574.37
2019-05-09T13:48:02.284Z,99566.34
2019-05-09T13:50:33.942Z,99566.52
2019-05-09T13:53:04.558Z,99576.75
2019-05-09T13:55:37.921Z,99569.80
2019-05-09T13:58:07.748Z,99565.20
2019-05-09T14:00:39.413Z,99567.70
2019-05-09T14:03:11.231Z,99560.56
2019-05-09T14:05:42.817Z,99561.48
2019-05-09T14:08:14.285Z,99560.77
2019-05-09T14:10:44.922Z,99560.36
2019-05-09T14:13:15.507Z,99565.69
2019-05-09T14:15:48.672Z,99563.31
2019-05-09T14:18:19.103Z,99553.17
2019-05-09T14:20:49.852Z,99552.14
2019-05-09T14:23:21.520Z,99561.11
2019-05-09T14:25:52.226Z,99565.66
2019-05-09T14:28:22.871Z,99569.16
2019-05-09T14:30:53.754Z,99572.78
2019-05-09T14:33:24.646Z,99573.84
2019-05-09T14:35:55.232Z,99575.78
2019-05-09T14:38:28.035Z,99580.42
2019-05-09T14:40:59.483Z,99578.56
2019-05-09T14:43:30.530Z,99576.94
2019-05-09T14:46:01.222Z,99571.50
2019-05-09T14:48:31.824Z,99570.75
2019-05-09T14:51:02.524Z,99566.30
2019-05-09T14:53:33.383Z,99563.30
2019-05-09T14:56:04.082Z,99561.57
2019-05-09T14:58:34.652Z,99562.84
2019-05-09T15:01:08.388Z,99558.09
2019-05-09T15:03:38.905Z,99562.67
2019-05-09T15:06:09.820Z,99553.92
2019-05-09T15:08:40.428Z,99559.07
2019-05-09T15:11:11.161Z,99559.77
2019-05-09T15:13:41.723Z,99559.48
2019-05-09T15:16:13.988Z,99558.48
2019-05-09T15:18:44.590Z,99553.53
2019-05-09T15:21:16.658Z,99548.17
2019-05-09T15:23:48.192Z,99557.31
2019-05-09T15:26:20.511Z,99556.83
2019-05-09T15:28:51.086Z,99560.36
2019-05-09T15:31:22.067Z,99568.98
2019-05-09T15:33:52.724Z,99575.78
2019-05-09T15:36:23.400Z,99575.83
2019-05-09T15:38:54.091Z,99574.77
2019-05-09T15:41:24.677Z,99573.58
2019-05-09T15:43:57.919Z,99571.81
2019-05-09T15:46:30.007Z,99571.81
2019-05-09T15:49:00.630Z,99564.05
2019-05-09T15:51:32.195Z,99562.77
2019-05-09T15:54:02.932Z,99565.02
2019-05-09T15:56:33.689Z,99566.34
2019-05-09T15:59:04.309Z,99568.55
2019-05-09T16:01:38.520Z,99571.06
2019-05-09T16:04:09.143Z,99572.20
2019-05-09T16:06:39.753Z,99570.27
2019-05-09T16:09:12.059Z,99571.41
2019-05-09T16:11:42.853Z,99571.41
2019-05-09T16:14:14.610Z,99574.14
2019-05-09T16:16:47.850Z,99575.02
2019-05-09T16:19:19.352Z,99576.39
2019-05-09T16:21:49.959Z,99575.18
2019-05-09T16:24:20.559Z,99577.52
2019-05-09T16:26:51.605Z,99590.45
2019-05-09T16:29:22.279Z,99593.88
2019-05-09T16:31:53.146Z,99594.23
2019-05-09T16:34:23.718Z,99593.58
2019-05-09T16:36:54.325Z,99595.17
2019-05-09T16:39:27.794Z,99588.63
2019-05-09T16:41:59.158Z,99595.50
2019-05-09T16:44:29.955Z,99592.89
2019-05-09T16:47:00.552Z,99583.15
2019-05-09T16:49:31.152Z,99585.00
2019-05-09T16:52:01.733Z,99592.23
2019-05-09T16:54:34.026Z,99593.17
2019-05-09T16:57:04.663Z,99600.59
2019-05-09T16:59:35.242Z,99603.27
2019-05-09T17:02:18.714Z,99605.96
2019-05-09T17:04:40.432Z,99605.25
2019-05-09T17:07:11.009Z,99599.09
2019-05-09T17:09:44.983Z,99593.25
2019-05-09T17:12:18.658Z,99594.81
2019-05-09T17:14:49.372Z,99594.36
2019-05-09T17:17:19.976Z,99598.16
2019-05-09T17:19:50.922Z,99593.00
2019-05-09T17:22:39.850Z,99600.86
2019-05-09T17:25:10.539Z,99597.55
2019-05-09T17:27:41.491Z,99592.58
2019-05-09T17:30:12.295Z,99592.47
2019-05-09T17:32:43.126Z,99588.04
2019-05-09T17:35:14.677Z,99595.30
2019-05-09T17:37:45.280Z,99599.95
2019-05-09T17:40:19.050Z,99609.11
2019-05-09T17:42:48.581Z,99611.84
2019-05-09T17:45:20.098Z,99608.45
2019-05-09T17:47:51.115Z,99602.94
2019-05-09T17:50:21.981Z,99595.36
2019-05-09T17:52:52.787Z,99600.08
2019-05-09T17:55:23.468Z,99604.42
2019-05-09T17:57:54.139Z,99610.70
2019-05-09T18:00:27.836Z,99604.36
2019-05-09T18:02:59.160Z,99605.78
2019-05-09T18:05:31.726Z,99602.71
2019-05-09T18:08:03.900Z,99611.59
2019-05-09T18:10:38.043Z,99610.03
2019-05-09T18:13:08.541Z,99603.57
2019-05-09T18:15:40.089Z,99610.48
2019-05-09T18:18:10.850Z,99610.08
2019-05-09T18:20:42.946Z,99608.00
2019-05-09T18:23:13.604Z,99600.69
2019-05-09T18:25:49.197Z,99589.36
2019-05-09T18:28:19.336Z,99600.84
2019-05-09T18:30:50.080Z,99599.47
2019-05-09T18:33:38.080Z,99607.39
2019-05-09T18:36:09.215Z,99607.34
2019-05-09T18:38:41.933Z,99613.19
2019-05-09T18:41:17.686Z,99608.70
2019-05-09T18:43:48.269Z,99612.84
2019-05-09T18:46:21.721Z,99607.84
2019-05-09T18:48:52.658Z,99609.36
2019-05-09T18:51:23.668Z,99616.08
2019-05-09T18:53:54.304Z,99611.19
2019-05-09T18:56:24.884Z,99610.20
2019-05-09T18:58:55.568Z,99612.58
2019-05-09T19:01:26.285Z,99606.93
2019-05-09T19:03:57.665Z,99614.52
2019-05-09T19:06:28.478Z,99617.23
2019-05-09T19:08:59.579Z,99615.66
2019-05-09T19:11:30.921Z,99612.84
2019-05-09T19:14:03.527Z,99611.87
2019-05-09T19:16:52.891Z,99611.24
2019-05-09T19:19:25.325Z,99619.65
2019-05-09T19:22:06.384Z,99616.02
2019-05-09T19:24:34.425Z,99618.38
2019-05-09T19:27:05.339Z,99618.44
2019-05-09T19:29:35.988Z,99621.48
2019-05-09T19:32:07.504Z,99622.81
2019-05-09T19:34:42.406Z,99625.00
2019-05-09T19:37:13.153Z,99631.02
2019-05-09T19:39:43.778Z,99634.31
2019-05-09T19:42:15.686Z,99644.50
2019-05-09T19:44:46.984Z,99643.77
2019-05-09T19:47:19.205Z,99648.59
2019-05-09T19:49:50.470Z,99645.36
2019-05-09T19:52:36.205Z,99652.29
2019-05-09T19:54:55.658Z,99654.81
2019-05-09T19:57:27.465Z,99655.85
2019-05-09T19:59:58.262Z,99657.04
2019-05-09T20:02:29.745Z,99656.82
2019-05-09T20:05:00.724Z,99651.84
2019-05-09T20:07:33.072Z,99653.95
2019-05-09T20:10:11.337Z,99652.01
2019-05-09T20:13:00.842Z,99655.63
2019-05-09T20:15:31.544Z,99653.88
2019-05-09T20:18:02.297Z,99654.08
2019-05-09T20:20:33.287Z,99653.43
2019-05-09T20:23:04.472Z,99654.59
2019-05-09T20:25:35.182Z,99647.11
2019-05-09T20:28:06.147Z,99653.20
2019-05-09T20:30:36.686Z,99653.81
2019-05-09T20:33:07.779Z,99652.23
2019-05-09T20:35:38.756Z,99647.59
2019-05-09T20:38:10.099Z,99644.75
2019-05-09T20:40:42.401Z,99652.55
2019-05-09T20:43:13.573Z,99651.19
2019-05-09T20:45:44.990Z,99652.68
2019-05-09T20:48:15.971Z,99658.73
2019-05-09T20:50:46.832Z,99662.17
2019-05-09T20:53:17.745Z,99661.14
2019-05-09T20:55:48.885Z,99654.92
2019-05-09T20:58:19.638Z,99665.87
2019-05-09T21:00:50.542Z,99666.64
2019-05-09T21:03:21.474Z,99668.80
2019-05-09T21:05:52.309Z,99677.02
2019-05-09T21:08:24.314Z,99678.44
2019-05-09T21:10:55.125Z,99679.79
2019-05-09T21:13:26.102Z,99678.73
2019-05-09T21:15:56.958Z,99680.83
2019-05-09T21:18:27.952Z,99675.59
2019-05-09T21:20:59.818Z,99681.37
2019-05-09T21:23:30.602Z,99679.31
2019-05-09T21:26:01.414Z,99684.12
2019-05-09T21:28:33.160Z,99683.47
2019-05-09T21:31:04.329Z,99690.56
2019-05-09T21:33:35.438Z,99690.91
2019-05-09T21:36:06.038Z,99684.96
2019-05-09T21:38:36.618Z,99691.89
2019-05-09T21:41:07.188Z,99683.48
2019-05-09T21:43:37.769Z,99686.91
2019-05-09T21:46:08.352Z,99686.19
2019-05-09T21:48:38.930Z,99686.43
2019-05-09T21:51:09.564Z,99686.81
2019-05-09T21:53:41.347Z,99687.52
2019-05-09T21:56:12.129Z,99691.00
2019-05-09T21:58:42.719Z,99699.34
2019-05-09T22:01:16.418Z,99701.59
2019-05-09T22:03:47.407Z,99707.08
2019-05-09T22:06:17.988Z,99704.70
2019-05-09T22:08:48.570Z,99705.31
2019-05-09T22:11:19.145Z,99698.22
2019-05-09T22:13:49.704Z,99705.53
2019-05-09T22:16:21.233Z,99704.88
2019-05-09T22:18:52.173Z,99698.88
2019-05-09T22:21:22.822Z,99701.91
2019-05-09T22:23:56.786Z,99707.21
2019-05-09T22:26:25.684Z,99707.12
2019-05-09T22:28:56.255Z,99705.90
2019-05-09T22:31:26.836Z,99708.31
2019-05-09T22:33:57.411Z,99707.42
2019-05-09T22:36:27.969Z,99701.20
2019-05-09T22:38:58.552Z,99699.51
2019-05-09T22:41:29.109Z,99707.36
2019-05-09T22:43:59.761Z,99705.64
2019-05-09T22:46:30.439Z,99701.16
2019-05-09T22:49:01.025Z,99701.83
2019-05-09T22:51:31.577Z,99706.80
2019-05-09T22:54:12.415Z,99705.33
2019-05-09T22:56:34.536Z,99706.73
2019-05-09T22:59:05.394Z,99707.36
2019-05-09T23:01:35.973Z,99704.09
2019-05-09T23:04:06.582Z,99703.97
2019-05-09T23:06:37.520Z,99702.76
2019-05-09T23:09:08.131Z,99699.90
2019-05-09T23:11:38.807Z,99699.06
2019-05-09T23:14:09.596Z,99699.86
2019-05-09T23:16:41.142Z,99702.00
2019-05-09T23:19:11.724Z,99707.24
2019-05-09T23:21:42.308Z,99708.08
2019-05-09T23:24:27.486Z,99693.95
2019-05-09T23:26:47.122Z,99694.51
2019-05-09T23:29:17.858Z,99694.04
2019-05-09T23:31:50.078Z,99698.30
2019-05-09T23:34:20.656Z,99694.78
2019-05-09T23:36:51.338Z,99695.41
2019-05-09T23:39:29.420Z,99692.37
2019-05-09T23:42:00.014Z,99689.91
2019-05-09T23:44:30.790Z,99691.53
2019-05-09T23:47:01.384Z,99688.23
2019-05-09T23:49:31.996Z,99696.77
2019-05-09T23:52:02.859Z,99692.37
2019-05-09T23:54:51.423Z,99692.95
2019-05-09T23:57:39.771Z,99703.96
